createdAt,value
2022-08-07T00:02:37.514Z,4.72
2022-08-07T00:04:25.680Z,5.35
2022-08-07T00:06:55.751Z,5.42
2022-08-07T00:09:35.409Z,5.12
2022-08-07T00:11:58.825Z,5.42
2022-08-07T00:14:31.304Z,5.67
2022-08-07T00:20:00.156Z,6.10
2022-08-07T00:22:03.647Z,5.45
2022-08-07T00:24:33.082Z,5.53
2022-08-07T00:27:07.494Z,6.20
2022-08-07T00:29:34.005Z,6.03
2022-08-07T00:32:06.809Z,6.37
2022-08-07T00:34:36.198Z,6.83
2022-08-07T00:37:05.523Z,6.55
2022-08-07T00:39:36.985Z,6.75
2022-08-07T00:42:08.397Z,7.62
2022-08-07T00:44:41.496Z,6.97
2022-08-07T00:47:16.028Z,6.80
2022-08-07T00:50:19.474Z,7.12
2022-08-07T00:52:11.589Z,7.20
2022-08-07T00:54:41.245Z,7.47
2022-08-07T00:57:11.403Z,7.45
2022-08-07T00:59:41.597Z,7.33
2022-08-07T01:02:28.785Z,7.60
2022-08-07T01:04:43.114Z,7.87
2022-08-07T01:07:13.586Z,7.70
2022-08-07T01:10:05.669Z,8.50
2022-08-07T01:12:29.259Z,7.28
2022-08-07T01:14:46.607Z,7.60
2022-08-07T01:17:17.578Z,8.20
2022-08-07T01:19:54.243Z,8.25
2022-08-07T01:22:22.896Z,8.23
2022-08-07T01:24:50.247Z,7.95
2022-08-07T01:27:20.157Z,7.97
2022-08-07T01:29:51.384Z,8.53
2022-08-07T01:32:23.059Z,9.03
2022-08-07T01:34:54.712Z,8.45
2022-08-07T01:37:25.168Z,8.80
2022-08-07T01:39:58.296Z,8.85
2022-08-07T01:42:37.605Z,8.80
2022-08-07T01:44:59.110Z,8.63
2022-08-07T01:48:20.677Z,8.48
2022-08-07T01:50:01.953Z,8.95
2022-08-07T01:52:33.174Z,8.90
2022-08-07T01:55:03.209Z,8.63
2022-08-07T01:58:05.427Z,9.50
2022-08-07T02:00:13.222Z,9.28
2022-08-07T02:03:19.465Z,9.50
2022-08-07T02:05:43.373Z,9.53
2022-08-07T02:08:04.994Z,9.28
2022-08-07T02:10:36.770Z,9.98
2022-08-07T02:13:09.361Z,10.20
2022-08-07T02:15:41.551Z,10.73
2022-08-07T02:18:15.081Z,11.15
2022-08-07T02:20:48.648Z,10.75
2022-08-07T02:23:20.347Z,11.78
2022-08-07T02:26:30.397Z,12.00
2022-08-07T02:28:27.340Z,11.88
2022-08-07T02:30:59.165Z,11.53
2022-08-07T02:33:41.964Z,11.12
2022-08-07T02:36:30.296Z,11.95
2022-08-07T02:38:36.786Z,10.90
2022-08-07T02:41:07.971Z,11.30
2022-08-07T02:43:40.241Z,11.48
2022-08-07T02:46:13.351Z,11.30
2022-08-07T02:48:54.764Z,11.05
2022-08-07T02:53:52.029Z,11.68
2022-08-07T02:56:24.895Z,12.45
2022-08-07T02:58:56.425Z,11.80
2022-08-07T03:01:35.427Z,11.55
2022-08-07T03:04:03.179Z,11.68
2022-08-07T03:09:04.645Z,11.48
2022-08-07T03:11:38.920Z,11.60
2022-08-07T03:14:06.762Z,11.63
2022-08-07T03:16:38.357Z,12.25
2022-08-07T03:19:09.325Z,12.13
2022-08-07T03:21:39.077Z,13.22
2022-08-07T03:24:21.080Z,12.95
2022-08-07T03:26:57.868Z,13.70
2022-08-07T03:29:15.893Z,14.13
2022-08-07T03:31:50.040Z,14.03
2022-08-07T03:36:50.550Z,14.03
2022-08-07T03:39:46.225Z,14.35
2022-08-07T03:41:53.274Z,13.83
2022-08-07T03:44:34.404Z,13.88
2022-08-07T03:47:11.537Z,14.60
2022-08-07T03:49:25.187Z,14.00
2022-08-07T03:52:01.883Z,14.38
2022-08-07T03:54:35.488Z,14.50
2022-08-07T03:57:03.678Z,14.35
2022-08-07T03:59:33.997Z,14.53
2022-08-07T04:02:03.864Z,13.75
2022-08-07T04:04:33.659Z,13.98
2022-08-07T04:07:07.681Z,14.03
2022-08-07T04:09:45.471Z,13.78
2022-08-07T04:12:27.030Z,13.70
2022-08-07T04:14:46.002Z,14.45
2022-08-07T04:17:20.222Z,14.38
2022-08-07T04:19:52.667Z,13.78
2022-08-07T04:22:17.660Z,14.98
2022-08-07T04:24:48.023Z,12.55
2022-08-07T04:27:25.111Z,13.08
2022-08-07T04:30:01.405Z,13.20
2022-08-07T04:32:27.198Z,13.50
2022-08-07T04:34:54.901Z,13.43
2022-08-07T04:37:24.354Z,13.38
2022-08-07T04:39:55.712Z,13.88
2022-08-07T04:42:28.668Z,13.58
2022-08-07T04:45:02.936Z,13.75
2022-08-07T04:48:01.037Z,12.33
2022-08-07T04:50:13.828Z,13.22
2022-08-07T04:52:51.756Z,13.83
2022-08-07T04:58:14.874Z,14.03
2022-08-07T04:58:31.577Z,12.82
2022-08-07T05:00:53.510Z,13.18
2022-08-07T05:04:00.387Z,12.33
2022-08-07T05:06:16.332Z,12.63
2022-08-07T05:09:00.845Z,12.28
2022-08-07T05:11:26.320Z,12.43
2022-08-07T05:14:51.942Z,11.70
2022-08-07T05:16:44.132Z,12.30
2022-08-07T05:19:16.664Z,12.03
2022-08-07T05:21:59.941Z,11.75
2022-08-07T05:24:24.737Z,11.48
2022-08-07T05:26:58.263Z,11.00
2022-08-07T05:29:38.838Z,11.00
2022-08-07T05:32:02.448Z,12.03
2022-08-07T05:34:33.374Z,11.30
2022-08-07T05:37:05.850Z,11.08
2022-08-07T05:40:06.393Z,10.98
2022-08-07T05:42:11.941Z,10.88
2022-08-07T05:44:46.484Z,10.67
2022-08-07T05:47:28.167Z,10.20
2022-08-07T05:49:44.207Z,9.88
2022-08-07T05:52:13.557Z,8.48
2022-08-07T05:54:53.536Z,8.40
2022-08-07T05:57:15.489Z,8.73
2022-08-07T05:59:57.269Z,8.90
2022-08-07T06:02:22.642Z,8.03
2022-08-07T06:04:54.505Z,8.38
2022-08-07T06:08:14.504Z,8.55
2022-08-07T06:10:05.567Z,8.63
2022-08-07T06:12:33.192Z,8.83
2022-08-07T06:15:05.552Z,9.10
2022-08-07T06:17:37.497Z,9.33
2022-08-07T06:20:05.672Z,9.48
2022-08-07T06:22:40.250Z,9.40
2022-08-07T06:25:10.268Z,9.75
2022-08-07T06:28:00.350Z,8.90
2022-08-07T06:30:31.915Z,8.53
2022-08-07T06:32:42.558Z,9.05
2022-08-07T06:35:17.697Z,9.48
2022-08-07T06:37:44.696Z,8.70
2022-08-07T06:40:20.507Z,7.95
2022-08-07T06:42:48.072Z,8.90
2022-08-07T06:45:30.103Z,7.30
2022-08-07T06:48:01.503Z,7.25
2022-08-07T06:50:37.334Z,7.60
2022-08-07T06:53:49.359Z,7.45
2022-08-07T06:56:01.079Z,6.72
2022-08-07T06:58:13.930Z,7.03
2022-08-07T07:00:53.064Z,5.75
2022-08-07T07:03:40.129Z,5.67
2022-08-07T07:06:03.253Z,5.60
2022-08-07T07:08:33.046Z,5.33
2022-08-07T07:11:13.527Z,4.87
2022-08-07T07:13:56.727Z,4.75
2022-08-07T07:16:13.298Z,3.95
2022-08-07T07:18:48.708Z,4.50
2022-08-07T07:21:40.460Z,4.37
2022-08-07T07:24:08.908Z,3.92
2022-08-07T07:26:37.141Z,3.92
2022-08-07T07:29:56.128Z,4.50
2022-08-07T07:31:44.506Z,4.92
2022-08-07T07:34:18.009Z,4.25
2022-08-07T07:36:53.879Z,3.75
2022-08-07T07:39:22.110Z,3.98
2022-08-07T07:42:08.686Z,3.65
2022-08-07T07:44:26.481Z,3.87
2022-08-07T07:47:04.410Z,3.30
2022-08-07T07:50:36.040Z,3.47
2022-08-07T07:52:01.330Z,3.33
2022-08-07T07:54:33.149Z,3.30
2022-08-07T07:57:04.372Z,3.30
2022-08-07T07:59:51.715Z,3.45
2022-08-07T08:02:10.689Z,3.02
2022-08-07T08:04:38.671Z,3.30
2022-08-07T08:07:09.969Z,2.80
2022-08-07T08:09:52.132Z,3.37
2022-08-07T08:12:12.577Z,3.22
2022-08-07T08:14:43.605Z,2.90
2022-08-07T08:17:57.895Z,3.10
2022-08-07T08:20:17.081Z,3.05
2022-08-07T08:22:37.047Z,3.30
2022-08-07T08:25:42.170Z,3.40
2022-08-07T08:28:01.799Z,3.02
2022-08-07T08:30:32.083Z,3.30
2022-08-07T08:33:04.020Z,2.85
2022-08-07T08:35:39.427Z,3.25
2022-08-07T08:38:07.021Z,3.10
2022-08-07T08:40:43.921Z,2.77
2022-08-07T08:43:16.003Z,3.00
2022-08-07T08:46:00.580Z,2.92
2022-08-07T08:48:46.428Z,2.67
2022-08-07T08:51:49.409Z,3.10
2022-08-07T08:54:09.166Z,2.92
2022-08-07T08:56:47.188Z,2.83
2022-08-07T08:59:42.304Z,2.98
2022-08-07T09:02:36.588Z,3.08
2022-08-07T09:05:08.482Z,3.00
2022-08-07T09:07:58.547Z,2.92
2022-08-07T09:10:46.385Z,3.33
2022-08-07T09:13:36.912Z,2.60
2022-08-07T09:16:30.538Z,2.40
2022-08-07T09:19:00.478Z,2.50
2022-08-07T09:22:09.726Z,2.62
2022-08-07T09:24:33.304Z,2.65
2022-08-07T09:27:22.399Z,2.50
2022-08-07T09:30:06.616Z,2.60
2022-08-07T09:33:53.244Z,2.70
2022-08-07T09:36:15.290Z,2.50
2022-08-07T09:38:54.101Z,2.42
2022-08-07T09:41:36.240Z,2.70
2022-08-07T09:44:58.757Z,2.45
2022-08-07T09:47:49.765Z,2.27
2022-08-07T09:50:18.303Z,2.40
2022-08-07T09:52:51.602Z,2.45
2022-08-07T09:56:03.467Z,2.00
2022-08-07T09:58:31.958Z,1.92
2022-08-07T10:01:51.820Z,2.30
2022-08-07T10:04:14.755Z,1.77
2022-08-07T10:07:24.432Z,1.70
2022-08-07T10:10:00.607Z,1.40
2022-08-07T10:12:52.553Z,1.70
2022-08-07T10:15:44.044Z,1.52
2022-08-07T10:18:27.106Z,1.80
2022-08-07T10:21:50.624Z,1.60
2022-08-07T10:24:18.650Z,1.47
2022-08-07T10:27:10.443Z,1.57
2022-08-07T10:29:59.283Z,1.60
2022-08-07T10:32:52.714Z,1.80
2022-08-07T10:35:55.263Z,1.80
2022-08-07T10:38:35.225Z,1.45
2022-08-07T10:40:54.364Z,1.62
2022-08-07T10:43:34.768Z,1.47
2022-08-07T10:46:09.369Z,1.55
2022-08-07T10:48:51.226Z,1.30
2022-08-07T10:51:57.282Z,1.25
2022-08-07T10:54:17.391Z,1.80
2022-08-07T10:57:04.973Z,1.30
2022-08-07T10:59:55.563Z,1.70
2022-08-07T11:02:48.976Z,1.67
2022-08-07T11:05:21.655Z,1.57
2022-08-07T11:08:06.400Z,1.72
2022-08-07T11:11:06.318Z,2.10
2022-08-07T11:14:43.988Z,1.82
2022-08-07T11:16:30.493Z,1.45
2022-08-07T11:19:06.800Z,1.40
2022-08-07T11:22:03.651Z,1.60
2022-08-07T11:24:47.876Z,1.40
2022-08-07T11:28:01.772Z,1.47
2022-08-07T11:30:39.166Z,1.25
2022-08-07T11:33:07.879Z,1.50
2022-08-07T11:36:00.687Z,1.22
2022-08-07T11:38:21.392Z,1.50
2022-08-07T11:40:59.552Z,1.35
2022-08-07T11:43:54.587Z,1.30
2022-08-07T11:46:41.156Z,1.10
2022-08-07T11:49:50.530Z,1.10
2022-08-07T11:51:53.273Z,1.30
2022-08-07T11:54:37.925Z,1.40
2022-08-07T11:57:59.619Z,1.47
2022-08-07T12:00:19.376Z,1.57
2022-08-07T12:03:42.040Z,1.40
2022-08-07T12:05:51.118Z,1.40
2022-08-07T12:08:34.717Z,1.42
2022-08-07T12:11:20.094Z,1.40
2022-08-07T12:13:59.721Z,1.20
2022-08-07T12:19:21.776Z,1.12
2022-08-07T12:22:38.014Z,1.20
2022-08-07T12:26:00.410Z,1.20
2022-08-07T12:28:08.873Z,1.30
2022-08-07T12:30:19.548Z,1.27
2022-08-07T12:33:23.114Z,1.30
2022-08-07T12:35:57.918Z,1.50
2022-08-07T12:38:38.477Z,1.45
2022-08-07T12:44:01.360Z,1.65
2022-08-07T12:46:10.650Z,1.40
2022-08-07T12:48:53.029Z,1.50
2022-08-07T12:51:21.009Z,1.72
2022-08-07T12:54:36.535Z,1.57
2022-08-07T12:56:51.199Z,1.80
2022-08-07T12:59:21.794Z,1.70
2022-08-07T13:02:15.858Z,1.50
2022-08-07T13:05:06.452Z,1.90
2022-08-07T13:08:11.988Z,1.75
2022-08-07T13:10:44.779Z,1.50
2022-08-07T13:13:12.963Z,2.00
2022-08-07T13:16:04.001Z,1.90
2022-08-07T13:18:44.585Z,1.80
2022-08-07T13:21:50.553Z,1.90
2022-08-07T13:24:04.878Z,1.50
2022-08-07T13:26:46.025Z,1.37
2022-08-07T13:29:23.277Z,1.65
2022-08-07T13:32:23.536Z,1.80
2022-08-07T13:34:50.721Z,1.80
2022-08-07T13:37:32.443Z,1.80
2022-08-07T13:40:35.264Z,1.90
2022-08-07T13:42:52.423Z,2.08
2022-08-07T13:46:10.766Z,2.25
2022-08-07T13:48:05.483Z,2.58
2022-08-07T13:50:35.132Z,2.58
2022-08-07T13:53:00.131Z,2.83
2022-08-07T13:55:31.329Z,2.70
2022-08-07T13:58:27.821Z,2.60
2022-08-07T14:00:56.771Z,2.60
2022-08-07T14:03:29.328Z,2.50
2022-08-07T14:05:59.022Z,2.40
2022-08-07T14:08:29.559Z,2.50
2022-08-07T14:11:15.025Z,2.85
2022-08-07T14:13:33.440Z,2.77
2022-08-07T14:16:16.064Z,2.55
2022-08-07T14:18:42.593Z,2.58
2022-08-07T14:21:20.838Z,2.60
2022-08-07T14:24:00.801Z,2.50
2022-08-07T14:26:29.875Z,2.80
2022-08-07T14:28:57.366Z,2.50
2022-08-07T14:31:42.899Z,2.53
2022-08-07T14:33:58.994Z,2.57
2022-08-07T14:36:28.724Z,2.70
2022-08-07T14:39:04.369Z,2.65
2022-08-07T14:42:18.744Z,2.40
2022-08-07T14:46:51.936Z,2.70
2022-08-07T14:54:32.921Z,2.87
2022-08-07T14:56:48.742Z,2.65
2022-08-07T15:00:04.528Z,2.40
2022-08-07T15:01:53.456Z,3.00
2022-08-07T15:04:25.566Z,3.08
2022-08-07T15:06:56.917Z,2.85
2022-08-07T15:14:32.145Z,2.50
2022-08-07T15:17:07.003Z,2.52
2022-08-07T15:20:30.765Z,2.52
2022-08-07T15:25:16.382Z,2.65
2022-08-07T15:30:06.371Z,2.70
2022-08-07T15:32:39.939Z,2.27
2022-08-07T15:39:59.772Z,2.40
2022-08-07T15:42:47.812Z,2.62
2022-08-07T15:45:25.775Z,2.30
2022-08-07T15:48:02.235Z,2.40
2022-08-07T15:51:01.885Z,2.30
2022-08-07T15:53:09.380Z,2.30
2022-08-07T15:56:02.214Z,2.60
2022-08-07T15:58:20.689Z,2.87
2022-08-07T16:00:47.829Z,2.22
2022-08-07T16:03:46.327Z,2.47
2022-08-07T16:05:55.064Z,2.30
2022-08-07T16:08:32.159Z,2.60
2022-08-07T16:13:58.963Z,2.35
2022-08-07T16:16:57.077Z,2.45
2022-08-07T16:19:43.032Z,2.45
2022-08-07T16:22:31.650Z,2.50
2022-08-07T16:24:53.932Z,2.70
2022-08-07T16:27:42.551Z,2.40
2022-08-07T16:30:31.150Z,2.40
2022-08-07T16:34:03.450Z,2.25
2022-08-07T16:41:41.647Z,2.40
2022-08-07T16:45:03.859Z,2.33
2022-08-07T16:47:56.604Z,2.60
2022-08-07T16:50:35.999Z,2.40
2022-08-07T16:54:03.108Z,2.40
2022-08-07T16:55:53.703Z,2.50
2022-08-07T16:58:47.952Z,2.60
2022-08-07T17:01:25.297Z,2.67
2022-08-07T17:04:12.507Z,2.30
2022-08-07T17:07:03.109Z,2.58
2022-08-07T17:10:08.154Z,2.47
2022-08-07T17:12:53.175Z,2.47
2022-08-07T17:15:44.742Z,2.60
2022-08-07T17:18:23.013Z,2.62
2022-08-07T17:20:54.987Z,2.77
2022-08-07T17:23:32.263Z,2.67
2022-08-07T17:26:22.564Z,2.77
2022-08-07T17:28:57.251Z,2.87
2022-08-07T17:32:03.359Z,2.70
2022-08-07T17:34:40.961Z,2.72
2022-08-07T17:38:05.853Z,2.90
2022-08-07T17:40:08.212Z,2.87
2022-08-07T17:42:58.161Z,3.17
2022-08-07T17:45:16.810Z,3.02
2022-08-07T17:50:23.642Z,3.00
2022-08-07T17:53:01.178Z,3.20
2022-08-07T17:56:00.800Z,3.10
2022-08-07T17:58:30.563Z,3.30
2022-08-07T18:01:03.479Z,3.20
2022-08-07T18:04:07.599Z,3.10
2022-08-07T18:06:38.285Z,3.50
2022-08-07T18:09:05.744Z,3.50
2022-08-07T18:12:07.824Z,3.62
2022-08-07T18:14:23.815Z,4.00
2022-08-07T18:17:13.669Z,4.20
2022-08-07T18:21:05.870Z,3.85
2022-08-07T18:22:40.214Z,4.05
2022-08-07T18:25:24.191Z,3.58
2022-08-07T18:27:58.346Z,3.95
2022-08-07T18:30:37.143Z,4.47
2022-08-07T18:33:16.252Z,4.15
2022-08-07T18:36:12.805Z,4.42
2022-08-07T18:40:05.333Z,4.40
2022-08-07T18:42:01.708Z,4.30
2022-08-07T18:45:43.689Z,4.40
2022-08-07T18:47:44.731Z,4.60
2022-08-07T18:50:38.172Z,4.20
2022-08-07T18:53:06.453Z,4.90
2022-08-07T18:56:00.247Z,4.40
2022-08-07T18:58:44.479Z,4.45
2022-08-07T19:02:19.154Z,4.22
2022-08-07T19:04:09.827Z,4.30
2022-08-07T19:06:59.672Z,4.30
2022-08-07T19:09:57.857Z,4.50
2022-08-07T19:12:33.249Z,4.40
2022-08-07T19:16:05.929Z,4.20
2022-08-07T19:18:35.215Z,4.45
2022-08-07T19:21:09.350Z,4.60
2022-08-07T19:23:58.940Z,4.80
2022-08-07T19:30:55.584Z,4.33
2022-08-07T19:31:58.667Z,4.60
2022-08-07T19:33:58.933Z,4.50
2022-08-07T19:36:30.043Z,4.53
2022-08-07T19:39:01.570Z,4.65
2022-08-07T19:41:39.266Z,4.87
2022-08-07T19:44:21.255Z,5.05
2022-08-07T19:46:50.342Z,4.70
2022-08-07T19:49:17.226Z,4.67
2022-08-07T19:51:50.978Z,4.90
2022-08-07T19:54:34.645Z,4.40
2022-08-07T19:57:51.632Z,5.05
2022-08-07T19:59:40.634Z,5.45
2022-08-07T20:02:03.277Z,5.20
2022-08-07T20:04:37.974Z,5.03
2022-08-07T20:07:10.516Z,4.92
2022-08-07T20:10:33.650Z,5.42
2022-08-07T20:12:34.765Z,5.62
2022-08-07T20:14:54.066Z,5.40
2022-08-07T20:17:23.652Z,5.70
2022-08-07T20:19:58.446Z,5.70
2022-08-07T20:22:29.119Z,6.10
2022-08-07T20:25:03.691Z,6.03
2022-08-07T20:27:46.053Z,5.92
2022-08-07T20:30:07.806Z,6.07
2022-08-07T20:32:44.021Z,5.80
2022-08-07T20:35:22.003Z,6.15
2022-08-07T20:37:58.478Z,6.12
2022-08-07T20:40:32.407Z,7.03
2022-08-07T20:42:58.838Z,6.35
2022-08-07T20:45:32.541Z,6.67
2022-08-07T20:48:02.374Z,6.70
2022-08-07T20:50:32.593Z,6.12
2022-08-07T20:53:03.094Z,6.35
2022-08-07T20:55:37.174Z,6.25
2022-08-07T20:58:12.274Z,6.75
2022-08-07T21:00:42.953Z,7.35
2022-08-07T21:03:15.426Z,6.67
2022-08-07T21:06:21.663Z,7.33
2022-08-07T21:09:12.861Z,7.10
2022-08-07T21:11:49.967Z,7.78
2022-08-07T21:14:31.758Z,8.15
2022-08-07T21:17:06.675Z,7.62
2022-08-07T21:19:19.511Z,7.87
2022-08-07T21:21:57.378Z,8.10
2022-08-07T21:27:06.941Z,8.50
2022-08-07T21:29:59.301Z,8.03
2022-08-07T21:32:50.201Z,9.30
2022-08-07T21:36:04.072Z,8.65
2022-08-07T21:38:27.759Z,8.55
2022-08-07T21:41:09.949Z,9.58
2022-08-07T21:43:58.293Z,9.08
2022-08-07T21:46:49.424Z,9.83
2022-08-07T21:50:01.186Z,9.85
2022-08-07T21:52:41.428Z,9.13
2022-08-07T21:55:19.254Z,10.35
2022-08-07T21:58:30.001Z,10.13
2022-08-07T22:00:44.803Z,11.00
2022-08-07T22:03:34.644Z,10.93
2022-08-07T22:06:28.803Z,10.90
2022-08-07T22:09:13.863Z,11.63
2022-08-07T22:12:05.482Z,11.30
2022-08-07T22:14:23.887Z,11.53
2022-08-07T22:16:56.696Z,11.30
2022-08-07T22:19:48.863Z,11.90
2022-08-07T22:22:28.737Z,11.78
2022-08-07T22:25:07.570Z,11.65
2022-08-07T22:28:08.023Z,12.05
2022-08-07T22:30:42.953Z,11.35
2022-08-07T22:33:15.147Z,11.68
2022-08-07T22:35:50.969Z,11.60
2022-08-07T22:38:41.816Z,12.07
2022-08-07T22:41:20.014Z,11.73
2022-08-07T22:43:56.833Z,12.07
2022-08-07T22:47:02.583Z,12.07
2022-08-07T22:49:37.862Z,12.45
2022-08-07T22:52:34.834Z,12.60
2022-08-07T22:54:51.464Z,13.75
2022-08-07T22:57:59.023Z,11.88
2022-08-07T23:00:46.004Z,12.45
2022-08-07T23:03:58.918Z,12.70
2022-08-07T23:06:26.209Z,11.83
2022-08-07T23:10:04.785Z,12.68
2022-08-07T23:11:59.352Z,12.88
2022-08-07T23:15:02.809Z,13.13
2022-08-07T23:17:45.169Z,13.62
2022-08-07T23:20:52.583Z,13.80
2022-08-07T23:26:25.068Z,13.00
2022-08-07T23:29:17.089Z,13.83
2022-08-07T23:34:24.042Z,13.85
2022-08-07T23:35:01.191Z,13.93
2022-08-07T23:38:00.371Z,14.07
2022-08-07T23:40:39.640Z,14.38
2022-08-07T23:43:42.440Z,14.35
2022-08-07T23:46:33.851Z,15.25
2022-08-07T23:49:18.282Z,14.85
2022-08-07T23:52:58.530Z,14.00
2022-08-07T23:54:46.635Z,14.63
2022-08-07T23:57:20.084Z,13.83
